sensor_id;sensor_type;location;lat;lon;timestamp;P1;durP1;ratioP1;P2;durP2;ratioP2
22995;SDS011;11664;49.774;8.650;2023-04-24T00:01:11;4.05;;;3.85;;
22995;SDS011;11664;49.774;8.650;2023-04-24T00:03:38;4.55;;;4.35;;
22995;SDS011;11664;49.774;8.650;2023-04-24T00:06:04;4.00;;;3.80;;
22995;SDS011;11664;49.774;8.650;2023-04-24T00:08:31;4.75;;;4.53;;
22995;SDS011;11664;49.774;8.650;2023-04-24T00:10:57;5.07;;;4.72;;
22995;SDS011;11664;49.774;8.650;2023-04-24T00:13:22;5.05;;;4.82;;
22995;SDS011;11664;49.774;8.650;2023-04-24T00:15:48;5.70;;;5.40;;
22995;SDS011;11664;49.774;8.650;2023-04-24T00:18:14;5.50;;;5.20;;
22995;SDS011;11664;49.774;8.650;2023-04-24T00:20:39;4.57;;;4.28;;
22995;SDS011;11664;49.774;8.650;2023-04-24T00:23:05;4.47;;;4.28;;
22995;SDS011;11664;49.774;8.650;2023-04-24T00:25:30;5.38;;;4.97;;
22995;SDS011;11664;49.774;8.650;2023-04-24T00:27:56;5.03;;;3.58;;
22995;SDS011;11664;49.774;8.650;2023-04-24T00:30:21;3.75;;;3.50;;
22995;SDS011;11664;49.774;8.650;2023-04-24T00:32:47;3.90;;;3.60;;
22995;SDS011;11664;49.774;8.650;2023-04-24T00:35:13;5.32;;;5.03;;
22995;SDS011;11664;49.774;8.650;2023-04-24T00:37:39;5.63;;;5.22;;
22995;SDS011;11664;49.774;8.650;2023-04-24T00:40:05;4.88;;;4.57;;
22995;SDS011;11664;49.774;8.650;2023-04-24T00:42:31;3.92;;;3.72;;
22995;SDS011;11664;49.774;8.650;2023-04-24T00:44:57;3.63;;;3.33;;
22995;SDS011;11664;49.774;8.650;2023-04-24T00:47:24;3.90;;;3.55;;
22995;SDS011;11664;49.774;8.650;2023-04-24T00:49:50;4.10;;;3.85;;
22995;SDS011;11664;49.774;8.650;2023-04-24T00:52:16;3.78;;;3.58;;
22995;SDS011;11664;49.774;8.650;2023-04-24T00:54:43;3.67;;;3.47;;
22995;SDS011;11664;49.774;8.650;2023-04-24T00:57:10;4.00;;;3.80;;
22995;SDS011;11664;49.774;8.650;2023-04-24T00:59:35;4.10;;;3.90;;
22995;SDS011;11664;49.774;8.650;2023-04-24T01:02:01;4.18;;;3.97;;
22995;SDS011;11664;49.774;8.650;2023-04-24T01:04:27;4.05;;;3.83;;
22995;SDS011;11664;49.774;8.650;2023-04-24T01:06:53;3.80;;;3.60;;
22995;SDS011;11664;49.774;8.650;2023-04-24T01:09:21;3.25;;;3.08;;
22995;SDS011;11664;49.774;8.650;2023-04-24T01:11:48;3.72;;;3.30;;
22995;SDS011;11664;49.774;8.650;2023-04-24T01:14:14;3.78;;;3.20;;
22995;SDS011;11664;49.774;8.650;2023-04-24T01:16:39;3.25;;;3.10;;
22995;SDS011;11664;49.774;8.650;2023-04-24T01:19:06;3.05;;;2.95;;
22995;SDS011;11664;49.774;8.650;2023-04-24T01:21:34;3.70;;;2.88;;
22995;SDS011;11664;49.774;8.650;2023-04-24T01:24:01;2.97;;;2.72;;
22995;SDS011;11664;49.774;8.650;2023-04-24T01:26:27;3.10;;;3.00;;
22995;SDS011;11664;49.774;8.650;2023-04-24T01:28:53;3.45;;;3.13;;
22995;SDS011;11664;49.774;8.650;2023-04-24T01:31:18;3.33;;;3.10;;
22995;SDS011;11664;49.774;8.650;2023-04-24T01:37:07;2.90;;;2.80;;
22995;SDS011;11664;49.774;8.650;2023-04-24T01:39:32;3.50;;;3.20;;
22995;SDS011;11664;49.774;8.650;2023-04-24T01:41:58;4.40;;;3.28;;
22995;SDS011;11664;49.774;8.650;2023-04-24T01:44:25;2.90;;;2.80;;
22995;SDS011;11664;49.774;8.650;2023-04-24T01:46:51;3.90;;;2.85;;
22995;SDS011;11664;49.774;8.650;2023-04-24T01:49:18;3.20;;;2.90;;
22995;SDS011;11664;49.774;8.650;2023-04-24T01:51:44;3.72;;;3.53;;
22995;SDS011;11664;49.774;8.650;2023-04-24T01:54:10;4.60;;;4.35;;
22995;SDS011;11664;49.774;8.650;2023-04-24T01:56:35;3.33;;;3.13;;
22995;SDS011;11664;49.774;8.650;2023-04-24T01:59:04;4.47;;;3.70;;
22995;SDS011;11664;49.774;8.650;2023-04-24T02:01:34;4.15;;;3.95;;
22995;SDS011;11664;49.774;8.650;2023-04-24T02:04:03;3.67;;;3.38;;
22995;SDS011;11664;49.774;8.650;2023-04-24T02:06:29;4.25;;;4.00;;
22995;SDS011;11664;49.774;8.650;2023-04-24T02:08:56;3.55;;;3.38;;
22995;SDS011;11664;49.774;8.650;2023-04-24T02:11:22;3.35;;;3.15;;
22995;SDS011;11664;49.774;8.650;2023-04-24T02:13:48;3.50;;;3.30;;
22995;SDS011;11664;49.774;8.650;2023-04-24T02:16:14;3.97;;;3.72;;
22995;SDS011;11664;49.774;8.650;2023-04-24T02:18:39;3.70;;;3.50;;
22995;SDS011;11664;49.774;8.650;2023-04-24T02:21:05;4.28;;;4.03;;
22995;SDS011;11664;49.774;8.650;2023-04-24T02:23:30;4.20;;;3.95;;
22995;SDS011;11664;49.774;8.650;2023-04-24T02:25:56;4.20;;;4.00;;
22995;SDS011;11664;49.774;8.650;2023-04-24T02:28:21;4.45;;;3.70;;
22995;SDS011;11664;49.774;8.650;2023-04-24T02:30:47;5.25;;;3.67;;
22995;SDS011;11664;49.774;8.650;2023-04-24T02:33:12;3.60;;;3.40;;
22995;SDS011;11664;49.774;8.650;2023-04-24T02:35:38;3.40;;;3.20;;
22995;SDS011;11664;49.774;8.650;2023-04-24T02:38:03;3.42;;;3.22;;
22995;SDS011;11664;49.774;8.650;2023-04-24T02:40:29;4.13;;;3.80;;
22995;SDS011;11664;49.774;8.650;2023-04-24T02:42:55;4.40;;;4.10;;
22995;SDS011;11664;49.774;8.650;2023-04-24T02:45:20;4.95;;;4.30;;
22995;SDS011;11664;49.774;8.650;2023-04-24T02:47:46;3.90;;;3.70;;
22995;SDS011;11664;49.774;8.650;2023-04-24T02:50:11;4.32;;;4.03;;
22995;SDS011;11664;49.774;8.650;2023-04-24T02:52:37;4.85;;;4.45;;
22995;SDS011;11664;49.774;8.650;2023-04-24T02:55:02;4.20;;;3.90;;
22995;SDS011;11664;49.774;8.650;2023-04-24T02:57:28;5.43;;;4.57;;
22995;SDS011;11664;49.774;8.650;2023-04-24T02:59:54;6.03;;;5.72;;
22995;SDS011;11664;49.774;8.650;2023-04-24T03:02:19;5.72;;;5.32;;
22995;SDS011;11664;49.774;8.650;2023-04-24T03:04:45;4.65;;;4.25;;
22995;SDS011;11664;49.774;8.650;2023-04-24T03:07:13;5.28;;;3.65;;
22995;SDS011;11664;49.774;8.650;2023-04-24T03:09:39;4.15;;;3.85;;
22995;SDS011;11664;49.774;8.650;2023-04-24T03:12:05;3.90;;;3.70;;
22995;SDS011;11664;49.774;8.650;2023-04-24T03:14:30;5.22;;;4.93;;
22995;SDS011;11664;49.774;8.650;2023-04-24T03:16:56;6.95;;;6.00;;
22995;SDS011;11664;49.774;8.650;2023-04-24T03:19:22;8.35;;;7.88;;
22995;SDS011;11664;49.774;8.650;2023-04-24T03:21:47;8.70;;;8.23;;
22995;SDS011;11664;49.774;8.650;2023-04-24T03:24:13;11.18;;;10.55;;
22995;SDS011;11664;49.774;8.650;2023-04-24T03:26:38;15.20;;;14.40;;
22995;SDS011;11664;49.774;8.650;2023-04-24T03:29:04;17.77;;;16.67;;
22995;SDS011;11664;49.774;8.650;2023-04-24T03:31:29;12.52;;;11.82;;
22995;SDS011;11664;49.774;8.650;2023-04-24T03:33:55;9.82;;;9.23;;
22995;SDS011;11664;49.774;8.650;2023-04-24T03:36:20;10.95;;;10.35;;
22995;SDS011;11664;49.774;8.650;2023-04-24T03:38:46;7.00;;;6.60;;
22995;SDS011;11664;49.774;8.650;2023-04-24T03:41:11;7.60;;;7.05;;
22995;SDS011;11664;49.774;8.650;2023-04-24T03:43:37;10.68;;;10.07;;
22995;SDS011;11664;49.774;8.650;2023-04-24T03:46:03;12.70;;;12.07;;
22995;SDS011;11664;49.774;8.650;2023-04-24T03:48:28;15.18;;;14.40;;
22995;SDS011;11664;49.774;8.650;2023-04-24T03:50:54;16.25;;;15.38;;
22995;SDS011;11664;49.774;8.650;2023-04-24T03:53:19;18.50;;;17.40;;
22995;SDS011;11664;49.774;8.650;2023-04-24T03:55:45;16.45;;;15.60;;
22995;SDS011;11664;49.774;8.650;2023-04-24T03:58:11;14.60;;;13.65;;
22995;SDS011;11664;49.774;8.650;2023-04-24T04:00:38;8.40;;;7.95;;
22995;SDS011;11664;49.774;8.650;2023-04-24T04:03:05;9.52;;;9.02;;
22995;SDS011;11664;49.774;8.650;2023-04-24T04:05:30;9.23;;;8.68;;
22995;SDS011;11664;49.774;8.650;2023-04-24T04:07:56;9.40;;;8.68;;
22995;SDS011;11664;49.774;8.650;2023-04-24T04:10:22;10.13;;;9.63;;
22995;SDS011;11664;49.774;8.650;2023-04-24T04:12:47;9.90;;;9.32;;
22995;SDS011;11664;49.774;8.650;2023-04-24T04:15:13;11.38;;;10.68;;
22995;SDS011;11664;49.774;8.650;2023-04-24T04:17:38;13.68;;;12.77;;
22995;SDS011;11664;49.774;8.650;2023-04-24T04:20:04;17.88;;;16.92;;
22995;SDS011;11664;49.774;8.650;2023-04-24T04:22:36;12.57;;;11.45;;
22995;SDS011;11664;49.774;8.650;2023-04-24T04:25:02;12.93;;;12.10;;
22995;SDS011;11664;49.774;8.650;2023-04-24T04:27:29;12.65;;;11.93;;
22995;SDS011;11664;49.774;8.650;2023-04-24T04:29:57;13.57;;;12.68;;
22995;SDS011;11664;49.774;8.650;2023-04-24T04:32:26;6.38;;;5.88;;
22995;SDS011;11664;49.774;8.650;2023-04-24T04:34:51;6.50;;;6.10;;
22995;SDS011;11664;49.774;8.650;2023-04-24T04:37:18;5.55;;;5.15;;
22995;SDS011;11664;49.774;8.650;2023-04-24T04:39:43;5.70;;;5.35;;
22995;SDS011;11664;49.774;8.650;2023-04-24T04:42:09;6.75;;;6.32;;
22995;SDS011;11664;49.774;8.650;2023-04-24T04:44:35;5.93;;;5.53;;
22995;SDS011;11664;49.774;8.650;2023-04-24T04:47:01;5.13;;;4.82;;
22995;SDS011;11664;49.774;8.650;2023-04-24T04:49:30;5.85;;;5.43;;
22995;SDS011;11664;49.774;8.650;2023-04-24T04:51:56;6.28;;;5.78;;
22995;SDS011;11664;49.774;8.650;2023-04-24T04:54:22;5.35;;;4.85;;
22995;SDS011;11664;49.774;8.650;2023-04-24T04:56:49;21.83;;;20.60;;
22995;SDS011;11664;49.774;8.650;2023-04-24T04:59:15;6.18;;;5.68;;
22995;SDS011;11664;49.774;8.650;2023-04-24T05:01:41;9.93;;;9.32;;
22995;SDS011;11664;49.774;8.650;2023-04-24T05:04:06;8.35;;;7.85;;
22995;SDS011;11664;49.774;8.650;2023-04-24T05:06:32;28.08;;;26.55;;
22995;SDS011;11664;49.774;8.650;2023-04-24T05:08:57;6.68;;;6.18;;
22995;SDS011;11664;49.774;8.650;2023-04-24T05:11:23;19.42;;;18.30;;
22995;SDS011;11664;49.774;8.650;2023-04-24T05:13:48;19.80;;;18.73;;
22995;SDS011;11664;49.774;8.650;2023-04-24T05:16:14;11.15;;;10.55;;
22995;SDS011;11664;49.774;8.650;2023-04-24T05:18:39;6.85;;;6.30;;
22995;SDS011;11664;49.774;8.650;2023-04-24T05:21:05;11.15;;;5.18;;
22995;SDS011;11664;49.774;8.650;2023-04-24T05:23:30;5.88;;;5.47;;
22995;SDS011;11664;49.774;8.650;2023-04-24T05:25:56;4.70;;;4.40;;
22995;SDS011;11664;49.774;8.650;2023-04-24T05:28:22;5.88;;;5.47;;
22995;SDS011;11664;49.774;8.650;2023-04-24T05:30:47;4.95;;;4.57;;
22995;SDS011;11664;49.774;8.650;2023-04-24T05:33:13;8.00;;;7.43;;
22995;SDS011;11664;49.774;8.650;2023-04-24T05:35:39;8.30;;;7.78;;
22995;SDS011;11664;49.774;8.650;2023-04-24T05:38:10;6.37;;;5.87;;
22995;SDS011;11664;49.774;8.650;2023-04-24T05:40:36;5.35;;;4.97;;
22995;SDS011;11664;49.774;8.650;2023-04-24T05:43:01;5.60;;;4.63;;
22995;SDS011;11664;49.774;8.650;2023-04-24T05:45:27;4.95;;;4.55;;
22995;SDS011;11664;49.774;8.650;2023-04-24T05:47:52;6.80;;;5.95;;
22995;SDS011;11664;49.774;8.650;2023-04-24T05:50:18;7.30;;;6.68;;
22995;SDS011;11664;49.774;8.650;2023-04-24T05:52:44;6.57;;;6.07;;
22995;SDS011;11664;49.774;8.650;2023-04-24T05:55:10;6.13;;;5.65;;
22995;SDS011;11664;49.774;8.650;2023-04-24T05:57:36;7.43;;;6.80;;
22995;SDS011;11664;49.774;8.650;2023-04-24T06:00:01;5.80;;;5.30;;
22995;SDS011;11664;49.774;8.650;2023-04-24T06:02:27;5.85;;;5.35;;
22995;SDS011;11664;49.774;8.650;2023-04-24T06:04:57;6.03;;;5.47;;
22995;SDS011;11664;49.774;8.650;2023-04-24T06:07:23;8.13;;;6.60;;
22995;SDS011;11664;49.774;8.650;2023-04-24T06:09:51;6.47;;;6.00;;
22995;SDS011;11664;49.774;8.650;2023-04-24T06:12:17;6.40;;;5.90;;
22995;SDS011;11664;49.774;8.650;2023-04-24T06:14:42;6.10;;;5.70;;
22995;SDS011;11664;49.774;8.650;2023-04-24T06:17:08;5.28;;;4.88;;
22995;SDS011;11664;49.774;8.650;2023-04-24T06:19:33;5.50;;;5.00;;
22995;SDS011;11664;49.774;8.650;2023-04-24T06:21:59;5.22;;;4.72;;
22995;SDS011;11664;49.774;8.650;2023-04-24T06:24:28;5.75;;;5.15;;
22995;SDS011;11664;49.774;8.650;2023-04-24T06:26:53;5.32;;;4.85;;
22995;SDS011;11664;49.774;8.650;2023-04-24T06:29:19;5.53;;;4.90;;
22995;SDS011;11664;49.774;8.650;2023-04-24T06:31:44;5.55;;;4.93;;
22995;SDS011;11664;49.774;8.650;2023-04-24T06:34:10;7.20;;;6.57;;
22995;SDS011;11664;49.774;8.650;2023-04-24T06:36:35;6.43;;;5.85;;
22995;SDS011;11664;49.774;8.650;2023-04-24T06:39:01;7.35;;;6.65;;
22995;SDS011;11664;49.774;8.650;2023-04-24T06:41:28;6.60;;;5.95;;
22995;SDS011;11664;49.774;8.650;2023-04-24T06:43:54;7.15;;;6.55;;
22995;SDS011;11664;49.774;8.650;2023-04-24T06:46:19;6.55;;;5.50;;
22995;SDS011;11664;49.774;8.650;2023-04-24T06:48:48;6.65;;;5.95;;
22995;SDS011;11664;49.774;8.650;2023-04-24T06:51:14;6.13;;;5.57;;
22995;SDS011;11664;49.774;8.650;2023-04-24T06:53:40;7.30;;;5.45;;
22995;SDS011;11664;49.774;8.650;2023-04-24T06:56:05;6.28;;;5.68;;
22995;SDS011;11664;49.774;8.650;2023-04-24T06:58:31;7.20;;;5.95;;
22995;SDS011;11664;49.774;8.650;2023-04-24T07:00:56;6.60;;;6.00;;
22995;SDS011;11664;49.774;8.650;2023-04-24T07:03:22;7.88;;;7.18;;
22995;SDS011;11664;49.774;8.650;2023-04-24T07:05:48;6.68;;;5.97;;
22995;SDS011;11664;49.774;8.650;2023-04-24T07:08:14;6.47;;;5.60;;
22995;SDS011;11664;49.774;8.650;2023-04-24T07:10:42;6.30;;;5.60;;
22995;SDS011;11664;49.774;8.650;2023-04-24T07:13:07;5.63;;;5.03;;
22995;SDS011;11664;49.774;8.650;2023-04-24T07:15:33;6.07;;;5.28;;
22995;SDS011;11664;49.774;8.650;2023-04-24T07:17:59;6.82;;;6.18;;
22995;SDS011;11664;49.774;8.650;2023-04-24T07:20:25;8.63;;;7.80;;
22995;SDS011;11664;49.774;8.650;2023-04-24T07:22:50;5.75;;;5.25;;
22995;SDS011;11664;49.774;8.650;2023-04-24T07:25:18;4.55;;;4.15;;
22995;SDS011;11664;49.774;8.650;2023-04-24T07:27:44;4.70;;;4.30;;
22995;SDS011;11664;49.774;8.650;2023-04-24T07:30:09;5.53;;;5.03;;
22995;SDS011;11664;49.774;8.650;2023-04-24T07:32:35;5.38;;;4.88;;
22995;SDS011;11664;49.774;8.650;2023-04-24T07:35:01;6.18;;;4.30;;
22995;SDS011;11664;49.774;8.650;2023-04-24T07:37:27;6.38;;;5.03;;
22995;SDS011;11664;49.774;8.650;2023-04-24T07:39:53;4.88;;;4.43;;
22995;SDS011;11664;49.774;8.650;2023-04-24T07:42:19;5.32;;;4.82;;
22995;SDS011;11664;49.774;8.650;2023-04-24T07:44:45;4.97;;;4.35;;
22995;SDS011;11664;49.774;8.650;2023-04-24T07:47:12;5.28;;;4.78;;
22995;SDS011;11664;49.774;8.650;2023-04-24T07:49:40;4.80;;;4.40;;
22995;SDS011;11664;49.774;8.650;2023-04-24T07:52:07;5.05;;;4.65;;
22995;SDS011;11664;49.774;8.650;2023-04-24T07:54:32;5.05;;;4.65;;
22995;SDS011;11664;49.774;8.650;2023-04-24T07:56:58;5.10;;;4.75;;
22995;SDS011;11664;49.774;8.650;2023-04-24T07:59:23;4.72;;;4.43;;
22995;SDS011;11664;49.774;8.650;2023-04-24T08:01:49;4.97;;;4.45;;
22995;SDS011;11664;49.774;8.650;2023-04-24T08:04:14;4.90;;;4.60;;
22995;SDS011;11664;49.774;8.650;2023-04-24T08:06:40;5.10;;;4.70;;
22995;SDS011;11664;49.774;8.650;2023-04-24T08:09:05;4.72;;;4.32;;
22995;SDS011;11664;49.774;8.650;2023-04-24T08:11:31;5.38;;;3.72;;
22995;SDS011;11664;49.774;8.650;2023-04-24T08:13:57;3.70;;;3.45;;
22995;SDS011;11664;49.774;8.650;2023-04-24T08:16:23;3.88;;;3.65;;
22995;SDS011;11664;49.774;8.650;2023-04-24T08:18:49;4.35;;;4.05;;
22995;SDS011;11664;49.774;8.650;2023-04-24T08:21:15;4.25;;;3.83;;
22995;SDS011;11664;49.774;8.650;2023-04-24T08:23:43;3.67;;;3.40;;
22995;SDS011;11664;49.774;8.650;2023-04-24T08:26:09;4.40;;;4.00;;
22995;SDS011;11664;49.774;8.650;2023-04-24T08:28:36;4.85;;;4.40;;
22995;SDS011;11664;49.774;8.650;2023-04-24T08:31:01;4.53;;;4.22;;
22995;SDS011;11664;49.774;8.650;2023-04-24T08:33:27;3.92;;;3.67;;
22995;SDS011;11664;49.774;8.650;2023-04-24T08:35:59;5.43;;;4.97;;
22995;SDS011;11664;49.774;8.650;2023-04-24T08:38:28;4.05;;;3.75;;
22995;SDS011;11664;49.774;8.650;2023-04-24T08:40:54;4.63;;;4.30;;
22995;SDS011;11664;49.774;8.650;2023-04-24T08:43:24;6.93;;;3.85;;
22995;SDS011;11664;49.774;8.650;2023-04-24T08:45:51;4.22;;;3.83;;
22995;SDS011;11664;49.774;8.650;2023-04-24T08:48:17;4.65;;;4.35;;
22995;SDS011;11664;49.774;8.650;2023-04-24T08:50:43;4.32;;;4.03;;
22995;SDS011;11664;49.774;8.650;2023-04-24T08:53:09;5.43;;;5.13;;
22995;SDS011;11664;49.774;8.650;2023-04-24T08:55:36;6.53;;;6.03;;
22995;SDS011;11664;49.774;8.650;2023-04-24T08:58:02;8.38;;;7.68;;
22995;SDS011;11664;49.774;8.650;2023-04-24T09:00:29;17.67;;;5.65;;
22995;SDS011;11664;49.774;8.650;2023-04-24T09:02:55;5.25;;;4.88;;
22995;SDS011;11664;49.774;8.650;2023-04-24T09:05:21;5.57;;;5.18;;
22995;SDS011;11664;49.774;8.650;2023-04-24T09:07:55;7.00;;;6.55;;
22995;SDS011;11664;49.774;8.650;2023-04-24T09:10:22;7.57;;;7.03;;
22995;SDS011;11664;49.774;8.650;2023-04-24T09:12:50;6.80;;;6.20;;
22995;SDS011;11664;49.774;8.650;2023-04-24T09:15:16;5.57;;;5.18;;
22995;SDS011;11664;49.774;8.650;2023-04-24T09:17:42;4.63;;;4.30;;
22995;SDS011;11664;49.774;8.650;2023-04-24T09:20:08;5.30;;;4.32;;
22995;SDS011;11664;49.774;8.650;2023-04-24T09:22:34;4.65;;;4.25;;
22995;SDS011;11664;49.774;8.650;2023-04-24T09:25:03;4.55;;;4.15;;
22995;SDS011;11664;49.774;8.650;2023-04-24T09:27:31;4.43;;;4.13;;
22995;SDS011;11664;49.774;8.650;2023-04-24T09:29:57;4.65;;;4.28;;
22995;SDS011;11664;49.774;8.650;2023-04-24T09:32:23;4.45;;;4.05;;
22995;SDS011;11664;49.774;8.650;2023-04-24T09:35:12;4.60;;;4.22;;
22995;SDS011;11664;49.774;8.650;2023-04-24T09:37:46;4.05;;;3.58;;
22995;SDS011;11664;49.774;8.650;2023-04-24T09:40:17;4.88;;;4.50;;
22995;SDS011;11664;49.774;8.650;2023-04-24T09:42:45;4.20;;;3.90;;
22995;SDS011;11664;49.774;8.650;2023-04-24T09:45:21;4.15;;;3.80;;
22995;SDS011;11664;49.774;8.650;2023-04-24T09:47:52;4.25;;;3.95;;
22995;SDS011;11664;49.774;8.650;2023-04-24T09:50:20;4.63;;;4.32;;
22995;SDS011;11664;49.774;8.650;2023-04-24T09:52:55;4.75;;;4.35;;
22995;SDS011;11664;49.774;8.650;2023-04-24T09:55:24;6.53;;;4.40;;
22995;SDS011;11664;49.774;8.650;2023-04-24T09:57:51;4.07;;;3.78;;
22995;SDS011;11664;49.774;8.650;2023-04-24T10:00:25;4.20;;;3.88;;
22995;SDS011;11664;49.774;8.650;2023-04-24T10:02:55;3.95;;;3.65;;
22995;SDS011;11664;49.774;8.650;2023-04-24T10:10:30;4.15;;;3.75;;
22995;SDS011;11664;49.774;8.650;2023-04-24T10:12:57;4.35;;;3.95;;
22995;SDS011;11664;49.774;8.650;2023-04-24T10:15:23;4.88;;;4.47;;
22995;SDS011;11664;49.774;8.650;2023-04-24T10:17:51;4.95;;;3.97;;
22995;SDS011;11664;49.774;8.650;2023-04-24T10:20:20;4.43;;;4.13;;
22995;SDS011;11664;49.774;8.650;2023-04-24T10:22:48;9.18;;;4.43;;
22995;SDS011;11664;49.774;8.650;2023-04-24T10:25:16;5.10;;;3.72;;
22995;SDS011;11664;49.774;8.650;2023-04-24T10:27:43;3.80;;;3.60;;
22995;SDS011;11664;49.774;8.650;2023-04-24T10:30:11;4.95;;;4.65;;
22995;SDS011;11664;49.774;8.650;2023-04-24T10:32:37;4.22;;;3.83;;
22995;SDS011;11664;49.774;8.650;2023-04-24T10:35:03;4.15;;;3.85;;
22995;SDS011;11664;49.774;8.650;2023-04-24T10:37:34;4.07;;;3.70;;
22995;SDS011;11664;49.774;8.650;2023-04-24T10:40:02;4.07;;;3.78;;
22995;SDS011;11664;49.774;8.650;2023-04-24T10:42:28;4.97;;;4.60;;
22995;SDS011;11664;49.774;8.650;2023-04-24T10:44:53;5.05;;;4.75;;
22995;SDS011;11664;49.774;8.650;2023-04-24T10:47:20;5.60;;;5.20;;
22995;SDS011;11664;49.774;8.650;2023-04-24T10:49:46;6.00;;;5.35;;
22995;SDS011;11664;49.774;8.650;2023-04-24T10:52:15;6.20;;;5.70;;
22995;SDS011;11664;49.774;8.650;2023-04-24T10:54:42;6.45;;;6.05;;
22995;SDS011;11664;49.774;8.650;2023-04-24T10:59:45;4.68;;;4.22;;
22995;SDS011;11664;49.774;8.650;2023-04-24T11:02:14;4.85;;;4.47;;
22995;SDS011;11664;49.774;8.650;2023-04-24T11:04:40;4.88;;;4.57;;
22995;SDS011;11664;49.774;8.650;2023-04-24T11:07:08;4.55;;;4.25;;
22995;SDS011;11664;49.774;8.650;2023-04-24T11:09:34;4.13;;;3.83;;
22995;SDS011;11664;49.774;8.650;2023-04-24T11:12:08;4.28;;;4.07;;
22995;SDS011;11664;49.774;8.650;2023-04-24T11:17:33;4.72;;;4.43;;
22995;SDS011;11664;49.774;8.650;2023-04-24T11:20:05;4.30;;;4.05;;
22995;SDS011;11664;49.774;8.650;2023-04-24T11:22:34;5.25;;;4.75;;
22995;SDS011;11664;49.774;8.650;2023-04-24T11:25:01;4.40;;;4.10;;
22995;SDS011;11664;49.774;8.650;2023-04-24T11:27:29;4.40;;;4.00;;
22995;SDS011;11664;49.774;8.650;2023-04-24T11:35:05;3.80;;;3.60;;
22995;SDS011;11664;49.774;8.650;2023-04-24T11:37:34;4.50;;;4.10;;
22995;SDS011;11664;49.774;8.650;2023-04-24T11:40:00;3.67;;;3.42;;
22995;SDS011;11664;49.774;8.650;2023-04-24T11:42:26;5.72;;;3.70;;
22995;SDS011;11664;49.774;8.650;2023-04-24T11:44:52;4.35;;;4.05;;
22995;SDS011;11664;49.774;8.650;2023-04-24T11:47:20;6.20;;;4.07;;
22995;SDS011;11664;49.774;8.650;2023-04-24T11:49:55;4.38;;;4.05;;
22995;SDS011;11664;49.774;8.650;2023-04-24T11:52:21;4.85;;;4.45;;
22995;SDS011;11664;49.774;8.650;2023-04-24T11:54:47;5.57;;;5.18;;
22995;SDS011;11664;49.774;8.650;2023-04-24T11:57:14;4.35;;;4.05;;
22995;SDS011;11664;49.774;8.650;2023-04-24T11:59:40;4.88;;;4.47;;
22995;SDS011;11664;49.774;8.650;2023-04-24T12:02:05;4.75;;;4.45;;
22995;SDS011;11664;49.774;8.650;2023-04-24T12:04:40;4.80;;;4.43;;
22995;SDS011;11664;49.774;8.650;2023-04-24T12:07:06;6.18;;;5.57;;
22995;SDS011;11664;49.774;8.650;2023-04-24T12:09:46;6.00;;;5.45;;
22995;SDS011;11664;49.774;8.650;2023-04-24T12:12:15;7.28;;;5.05;;
22995;SDS011;11664;49.774;8.650;2023-04-24T12:14:46;6.28;;;4.97;;
22995;SDS011;11664;49.774;8.650;2023-04-24T12:17:14;7.75;;;6.93;;
22995;SDS011;11664;49.774;8.650;2023-04-24T12:19:44;5.10;;;4.60;;
22995;SDS011;11664;49.774;8.650;2023-04-24T12:22:11;4.40;;;4.00;;
22995;SDS011;11664;49.774;8.650;2023-04-24T12:24:55;4.43;;;4.03;;
22995;SDS011;11664;49.774;8.650;2023-04-24T12:27:26;4.55;;;4.15;;
22995;SDS011;11664;49.774;8.650;2023-04-24T12:29:55;4.68;;;4.38;;
22995;SDS011;11664;49.774;8.650;2023-04-24T12:32:22;5.43;;;5.03;;
22995;SDS011;11664;49.774;8.650;2023-04-24T12:34:49;4.72;;;4.30;;
22995;SDS011;11664;49.774;8.650;2023-04-24T12:37:15;6.40;;;5.90;;
22995;SDS011;11664;49.774;8.650;2023-04-24T12:39:44;9.02;;;8.43;;
22995;SDS011;11664;49.774;8.650;2023-04-24T12:42:31;5.85;;;5.30;;
22995;SDS011;11664;49.774;8.650;2023-04-24T12:44:57;6.00;;;5.30;;
22995;SDS011;11664;49.774;8.650;2023-04-24T12:47:28;5.30;;;4.63;;
22995;SDS011;11664;49.774;8.650;2023-04-24T12:49:54;4.90;;;4.55;;
22995;SDS011;11664;49.774;8.650;2023-04-24T12:52:20;4.63;;;4.32;;
22995;SDS011;11664;49.774;8.650;2023-04-24T12:54:51;4.63;;;4.22;;
22995;SDS011;11664;49.774;8.650;2023-04-24T12:57:18;6.95;;;6.22;;
22995;SDS011;11664;49.774;8.650;2023-04-24T12:59:43;6.40;;;5.80;;
22995;SDS011;11664;49.774;8.650;2023-04-24T13:02:09;6.00;;;5.60;;
22995;SDS011;11664;49.774;8.650;2023-04-24T13:04:35;10.65;;;9.93;;
22995;SDS011;11664;49.774;8.650;2023-04-24T13:07:01;13.77;;;12.88;;
22995;SDS011;11664;49.774;8.650;2023-04-24T13:09:27;13.27;;;12.18;;
22995;SDS011;11664;49.774;8.650;2023-04-24T13:11:53;9.75;;;9.05;;
22995;SDS011;11664;49.774;8.650;2023-04-24T13:14:19;7.10;;;6.60;;
22995;SDS011;11664;49.774;8.650;2023-04-24T13:16:45;6.47;;;5.88;;
22995;SDS011;11664;49.774;8.650;2023-04-24T13:19:10;5.78;;;5.20;;
22995;SDS011;11664;49.774;8.650;2023-04-24T13:21:36;5.40;;;4.95;;
22995;SDS011;11664;49.774;8.650;2023-04-24T13:24:01;7.47;;;6.88;;
22995;SDS011;11664;49.774;8.650;2023-04-24T13:26:28;8.77;;;8.13;;
22995;SDS011;11664;49.774;8.650;2023-04-24T13:28:54;7.82;;;7.30;;
22995;SDS011;11664;49.774;8.650;2023-04-24T13:31:20;5.93;;;5.38;;
22995;SDS011;11664;49.774;8.650;2023-04-24T13:33:45;8.80;;;8.30;;
22995;SDS011;11664;49.774;8.650;2023-04-24T13:36:11;10.15;;;6.78;;
22995;SDS011;11664;49.774;8.650;2023-04-24T13:38:36;6.13;;;5.72;;
22995;SDS011;11664;49.774;8.650;2023-04-24T13:41:02;5.90;;;5.35;;
22995;SDS011;11664;49.774;8.650;2023-04-24T13:43:27;5.25;;;4.85;;
22995;SDS011;11664;49.774;8.650;2023-04-24T13:45:53;5.78;;;5.28;;
22995;SDS011;11664;49.774;8.650;2023-04-24T13:48:18;5.72;;;5.20;;
22995;SDS011;11664;49.774;8.650;2023-04-24T13:50:44;6.50;;;4.60;;
22995;SDS011;11664;49.774;8.650;2023-04-24T13:53:13;4.90;;;4.22;;
22995;SDS011;11664;49.774;8.650;2023-04-24T13:55:38;6.60;;;3.53;;
22995;SDS011;11664;49.774;8.650;2023-04-24T13:58:04;4.07;;;3.78;;
22995;SDS011;11664;49.774;8.650;2023-04-24T14:00:30;5.25;;;4.85;;
22995;SDS011;11664;49.774;8.650;2023-04-24T14:02:56;4.40;;;4.00;;
22995;SDS011;11664;49.774;8.650;2023-04-24T14:05:21;4.60;;;3.83;;
22995;SDS011;11664;49.774;8.650;2023-04-24T14:07:47;5.95;;;5.45;;
22995;SDS011;11664;49.774;8.650;2023-04-24T14:10:13;5.20;;;4.75;;
22995;SDS011;11664;49.774;8.650;2023-04-24T14:12:38;5.25;;;4.85;;
22995;SDS011;11664;49.774;8.650;2023-04-24T14:15:04;5.10;;;4.53;;
22995;SDS011;11664;49.774;8.650;2023-04-24T14:17:30;5.25;;;4.85;;
22995;SDS011;11664;49.774;8.650;2023-04-24T14:19:56;6.85;;;6.40;;
22995;SDS011;11664;49.774;8.650;2023-04-24T14:22:22;6.70;;;6.20;;
22995;SDS011;11664;49.774;8.650;2023-04-24T14:24:47;7.03;;;6.47;;
22995;SDS011;11664;49.774;8.650;2023-04-24T14:27:13;6.40;;;5.93;;
22995;SDS011;11664;49.774;8.650;2023-04-24T14:29:38;6.85;;;6.45;;
22995;SDS011;11664;49.774;8.650;2023-04-24T14:32:04;11.45;;;10.75;;
22995;SDS011;11664;49.774;8.650;2023-04-24T14:34:30;10.77;;;10.13;;
22995;SDS011;11664;49.774;8.650;2023-04-24T14:36:55;8.63;;;8.02;;
22995;SDS011;11664;49.774;8.650;2023-04-24T14:39:21;9.10;;;8.43;;
22995;SDS011;11664;49.774;8.650;2023-04-24T14:41:46;9.68;;;8.75;;
22995;SDS011;11664;49.774;8.650;2023-04-24T14:44:12;12.23;;;11.43;;
22995;SDS011;11664;49.774;8.650;2023-04-24T14:46:38;14.73;;;13.77;;
22995;SDS011;11664;49.774;8.650;2023-04-24T14:49:03;10.07;;;9.38;;
22995;SDS011;11664;49.774;8.650;2023-04-24T14:51:29;9.77;;;9.20;;
22995;SDS011;11664;49.774;8.650;2023-04-24T14:53:55;9.98;;;9.35;;
22995;SDS011;11664;49.774;8.650;2023-04-24T14:56:21;13.73;;;12.82;;
22995;SDS011;11664;49.774;8.650;2023-04-24T14:58:47;13.77;;;12.98;;
22995;SDS011;11664;49.774;8.650;2023-04-24T15:01:13;14.65;;;13.85;;